Flight Track Log - Related Links

Times and Time Zones

All times are in EDT time to prevent confusion due to time zone crossing. See the N700QA flight status page for this flight to view local times or setup timezone preferences in your user account.

Time Position Orientation Groundspeed Altitude Reporting Facility
EDT Latitude Longitude Course Direction KTS MPH feet Rate Location/Type
Thu 11:08:49 AM 39.3089 -106.9575 296° West 242 278 11,500  Level Denver Center
Thu 11:09:51 AM 39.3244 -107.0475 283° West 251 289 13,600 1,694 Climbing Denver Center
Thu 11:10:53 AM 39.3681 -107.1311 304° West 280 322 15,000 1,597 Climbing Denver Center
Thu 11:11:55 AM 39.3581 -107.2406 263° West 293 337 16,900 1,790 Climbing Denver Center
Thu 11:12:57 AM 39.3358 -107.3583 256° West 300 345 18,700 1,548 Climbing Denver Center
Thu 11:13:00 AM 38.9510 -107.5726 244° Southwest  Level Estimated
Thu 11:13:59 AM 39.3150 -107.4639 256° West 312 359 20,100  Level Denver Center
Thu 11:15:01 AM 39.2947 -107.5719 256° West 321 369 21,500 1,403 Climbing Denver Center
Thu 11:16:03 AM 39.2700 -107.6989 256° West 326 375 23,000 1,161 Climbing Denver Center
Thu 11:17:05 AM 39.2494 -107.8108 257° West 333 383 23,900 968 Climbing Denver Center
Thu 11:18:07 AM 39.2222 -107.9444 255° West 342 394 25,000 1,065 Climbing Denver Center
Thu 11:19:09 AM 39.2011 -108.0619 257° West 351 404 26,100 1,016 Climbing Denver Center
Thu 11:20:11 AM 39.1631 -108.1911 249° West 348 400 27,100 919 Climbing Denver Center
Thu 11:21:13 AM 39.1142 -108.2936 238° Southwest 350 403 28,000 823 Climbing Denver Center
Thu 11:22:15 AM 39.0611 -108.4200 242° Southwest 359 413 28,800 726 Climbing Denver Center
Thu 11:23:17 AM 39.0133 -108.5294 241° Southwest 365 420 29,500 823 Climbing Denver Center
Thu 11:24:19 AM 38.9586 -108.6553 241° Southwest 360 414 30,500 823 Climbing Denver Center
Thu 11:25:21 AM 38.9122 -108.7622 241° Southwest 358 412 31,200 788 Climbing Denver Center
Thu 11:26:36 AM 38.8506 -108.9044 241° Southwest 354 407 32,300 876 Climbing Denver Center
Thu 11:27:38 AM 38.8047 -109.0106 241° Southwest 354 407 33,200 823 Climbing Denver Center
Thu 11:28:40 AM 38.7528 -109.1314 241° Southwest 347 399 34,000 919 Climbing Denver Center
Thu 11:29:42 AM 38.7081 -109.2342 241° Southwest 344 396 35,100 823 Climbing Denver Center
Thu 11:30:44 AM 38.6550 -109.3514 240° Southwest 342 394 35,700 435 Climbing Denver Center
Thu 11:31:46 AM 38.6100 -109.4519 240° Southwest 340 391 36,000 194 Climbing Denver Center
Thu 11:32:48 AM 38.5633 -109.5586 241° Southwest 359 413 36,100 48 Climbing Denver Center
Thu 11:33:50 AM 38.5053 -109.6839 239° Southwest 365 420 36,100  Level Denver Center
Thu 11:34:52 AM 38.4550 -109.7964 240° Southwest 376 433 36,100  Level Denver Center
Thu 11:35:54 AM 38.3961 -109.9256 240° Southwest 378 435 36,100  Level Denver Center
Thu 11:36:56 AM 38.3453 -110.0381 240° Southwest 382 440 36,100  Level Denver Center
Thu 11:37:58 AM 38.2858 -110.1697 240° Southwest 384 442 36,100 -48 Level Denver Center
Thu 11:39:00 AM 38.2353 -110.2833 240° Southwest 386 444 36,000 -48 Descending Denver Center
Thu 11:40:02 AM 38.1750 -110.4144 240° Southwest 385 443 36,000  Level Denver Center
Thu 11:41:04 AM 38.1236 -110.5275 240° Southwest 386 444 36,000 48 Level Denver Center
Thu 11:42:07 AM 38.0611 -110.6597 239° Southwest 390 449 36,100 48 Climbing Denver Center
Thu 11:43:09 AM 38.0092 -110.7731 240° Southwest 390 449 36,100  Level Denver Center
Thu 11:44:11 AM 37.9517 -110.9000 240° Southwest 389 448 36,100  Level Denver Center
Thu 11:45:13 AM 37.8958 -111.0172 239° Southwest 389 448 36,100 -48 Level Denver Center
Thu 11:46:15 AM 37.8414 -111.1342 240° Southwest 388 447 36,000  Descending Denver Center
Thu 11:47:17 AM 37.7869 -111.2508 239° Southwest 386 444 36,100 44 Climbing Denver Center
Thu 11:48:31 AM 37.7217 -111.3906 239° Southwest 385 443 36,100  Level Denver Center
Thu 11:49:33 AM 37.6558 -111.5281 239° Southwest 382 440 36,100  Level Denver Center
Thu 11:50:40 AM 37.6019 -111.6439 240° Southwest 382 440 36,100  Level Salt Center
Thu 11:51:42 AM 37.5483 -111.7586 240° Southwest 381 438 36,100 -48 Level Salt Center
Thu 11:52:44 AM 37.4811 -111.8947 238° Southwest 381 438 36,000  Descending Salt Center
Thu 11:53:46 AM 37.4264 -112.0092 239° Southwest 381 438 36,100 48 Climbing Salt Center
Thu 11:54:48 AM 37.3725 -112.1239 239° Southwest 380 437 36,100  Level Salt Center
Thu 11:55:50 AM 37.3164 -112.2378 238° Southwest 381 438 36,100  Level Salt Center
Thu 11:56:52 AM 37.2606 -112.3506 238° Southwest 380 437 36,100 -48 Level Salt Center
Thu 11:57:54 AM 37.2056 -112.4639 239° Southwest 379 436 36,000  Descending Salt Center
Thu 11:58:56 AM 37.1500 -112.5789 239° Southwest 381 438 36,100 48 Climbing Salt Center
Thu 11:59:58 AM 37.0836 -112.7144 238° Southwest 380 437 36,100 -48 Level Salt Center
Thu 12:01:00 PM 37.0275 -112.8272 238° Southwest 379 436 36,000  Descending Salt Center
Thu 12:02:02 PM 36.9719 -112.9397 238° Southwest 380 437 36,100 194 Climbing Salt Center
Thu 12:03:04 PM 36.9167 -113.0528 239° Southwest 379 436 36,400 391 Climbing Salt Center
Thu 12:03:34 PM 36.8942 -113.0978 238° Southwest 380 437 36,700 717 Climbing Los Center
Thu 12:04:36 PM 36.8300 -113.2267 238° Southwest 367 422 37,500 629 Climbing Los Center
Thu 12:05:38 PM 36.7764 -113.3328 238° Southwest 363 418 38,000 242 Climbing Los Center
Thu 12:06:40 PM 36.7219 -113.4403 238° Southwest 365 420 38,000 48 Level Los Center
Thu 12:07:42 PM 36.6661 -113.5522 238° Southwest 375 432 38,100 48 Climbing Los Center
Thu 12:08:44 PM 36.6094 -113.6653 238° Southwest 383 441 38,100  Level Los Center
Thu 12:09:46 PM 36.5525 -113.7764 237° Southwest 383 441 38,100  Level Los Center
Thu 12:10:48 PM 36.4914 -113.8897 236° Southwest 377 434 38,100 -44 Level Los Center
Thu 12:12:03 PM 36.4044 -113.9969 225° Southwest 367 422 38,000 -44 Descending Los Center
Thu 12:13:05 PM 36.3164 -114.0981 223° Southwest 359 413 38,000  Level Los Center
Thu 12:14:07 PM 36.2414 -114.1808 222° Southwest 360 414 38,000  Level Los Center
Thu 12:15:09 PM 36.1650 -114.2622 221° Southwest 360 414 38,000  Level Los Center
Thu 12:16:11 PM 36.0906 -114.3456 222° Southwest 360 414 38,000  Level Los Center
Thu 12:17:14 PM 36.0147 -114.4292 222° Southwest 363 418 38,000  Level Los Center
Thu 12:18:15 PM 35.9375 -114.5125 221° Southwest 365 420 38,000  Level Los Center
Thu 12:19:17 PM 35.8469 -114.6128 222° Southwest 364 419 38,000  Level Los Center
Thu 12:20:20 PM 35.7711 -114.6953 221° Southwest 363 418 38,000  Level Los Center
Thu 12:21:22 PM 35.6950 -114.7794 222° Southwest 364 419 38,000  Level Los Center
Thu 12:22:24 PM 35.6200 -114.8633 222° Southwest 364 419 38,000  Level Los Center
Thu 12:23:26 PM 35.5458 -114.9489 223° Southwest 363 418 38,000  Level Los Center
Thu 12:24:28 PM 35.4722 -115.0361 224° Southwest 366 421 38,000  Level Los Center
Thu 12:25:30 PM 35.3992 -115.1222 224° Southwest 364 419 38,000  Level Los Center
Thu 12:26:32 PM 35.3114 -115.2244 224° Southwest 362 417 38,000  Level Los Center
Thu 12:27:34 PM 35.2389 -115.3108 224° Southwest 362 417 38,000  Level Los Center
Thu 12:28:36 PM 35.1767 -115.3844 224° Southwest 364 419 38,000 -480 Level Los Center
Thu 12:29:39 PM 35.1028 -115.5131 235° Southwest 384 442 37,000 -864 Descending Los Center
Thu 12:30:41 PM 35.0375 -115.6217 234° Southwest 394 453 36,200 -823 Descending Los Center
Thu 12:31:43 PM 34.9708 -115.7300 233° Southwest 397 457 35,300 -823 Descending Los Center
Thu 12:32:45 PM 34.9019 -115.8403 233° Southwest 405 466 34,500 -823 Descending Los Center
Thu 12:33:47 PM 34.8328 -115.9522 233° Southwest 411 473 33,600 -823 Descending Los Center
Thu 12:34:49 PM 34.7639 -116.0642 233° Southwest 412 474 32,800 -919 Descending Los Center
Thu 12:35:51 PM 34.6803 -116.1986 233° Southwest 413 475 31,700 -968 Descending Los Center
Thu 12:36:53 PM 34.6097 -116.3097 232° Southwest 416 479 30,800 -823 Descending Los Center
Thu 12:37:55 PM 34.5397 -116.4214 233° Southwest 416 479 30,000 -1,403 Descending Los Center
Thu 12:38:57 PM 34.4681 -116.5356 233° Southwest 424 488 27,900 -1,968 Descending Los Center
Thu 12:40:00 PM 34.3947 -116.6500 232° Southwest 429 494 25,900 -1,968 Descending Los Center
Thu 12:41:02 PM 34.3253 -116.7614 233° Southwest 416 479 23,800 -2,226 Descending Los Center
Thu 12:42:04 PM 34.2436 -116.8886 232° Southwest 399 459 21,300 -2,081 Descending Los Center
Thu 12:43:06 PM 34.1789 -116.9908 233° Southwest 385 443 19,500 -1,676 Descending Los Center
Thu 12:43:55 PM 34.1167 -117.0833 231° Southwest 386 444 18,200 -881 Descending Southern TRACON
Thu 12:44:55 PM 34.0667 -117.1833 239° Southwest 362 417 17,900 -850 Descending Southern TRACON
Thu 12:45:55 PM 34.0500 -117.2833 259° West 312 359 16,500 -1,850 Descending Southern TRACON
Thu 12:46:55 PM 34.0333 -117.3833 259° West 317 365 14,200 -2,050 Descending Southern TRACON
Thu 12:47:55 PM 34.0333 -117.5000 270° West 316 364 12,400 -1,041 Descending Southern TRACON
Thu 12:48:56 PM 34.0333 -117.6000 270° West 311 358 12,100 -200 Descending Southern TRACON
Thu 12:49:55 PM 34.0167 -117.7000 259° West 298 343 12,000 -1,008 Descending Southern TRACON
Thu 12:50:55 PM 34.0000 -117.8167 260° West 314 361 10,100 -1,850 Descending Southern TRACON
Thu 12:51:55 PM 34.0000 -117.9000 270° West 260 299 8,300 -1,650 Descending Southern TRACON
Thu 12:52:55 PM 34.0000 -117.9833 270° West 226 260 6,800 -1,300 Descending Southern TRACON
Thu 12:53:55 PM 33.9833 -118.0500 253° West 201 231 5,700 -850 Descending Southern TRACON
Thu 12:54:55 PM 33.9833 -118.1167 270° West 200 230 5,100 -688 Descending Southern TRACON
Thu 12:55:31 PM 33.9792 -118.1467 260° West 200 230 4,600 -918 Descending Los Center
Thu 12:56:33 PM 33.9722 -118.2078 262° West 191 220 3,600 -1,113 Descending Los Center
Thu 12:57:35 PM 33.9633 -118.2869 262° West 196 226 2,300 -1,200 Descending Los Center
Thu 12:58:38 PM 33.9581 -118.3464 264° West 190 219 1,100 -960 Descending Los Center
Thu 12:59:40 PM 33.9528 -118.3931 262° West 162 186 300 -774 Descending Los Center
Thu 01:01:00 PM 33.9333 -118.4000 259° West  Level FlightAware

Login

Don't have an account? Register now (free) for customized features, flight alerts, and more!